sensor_id;sensor_type;location;lat;lon;timestamp;P1;durP1;ratioP1;P2;durP2;ratioP2
64282;SDS011;50497;50.720;-2.084;2023-02-17T00:01:40;21.50;;;6.47;;
64282;SDS011;50497;50.720;-2.084;2023-02-17T00:04:08;24.92;;;7.22;;
64282;SDS011;50497;50.720;-2.084;2023-02-17T00:06:36;19.92;;;6.03;;
64282;SDS011;50497;50.720;-2.084;2023-02-17T00:09:08;22.55;;;6.30;;
64282;SDS011;50497;50.720;-2.084;2023-02-17T00:11:37;22.25;;;6.68;;
64282;SDS011;50497;50.720;-2.084;2023-02-17T00:14:05;21.60;;;6.95;;
64282;SDS011;50497;50.720;-2.084;2023-02-17T00:16:33;19.77;;;6.35;;
64282;SDS011;50497;50.720;-2.084;2023-02-17T00:19:00;20.05;;;6.82;;
64282;SDS011;50497;50.720;-2.084;2023-02-17T00:21:28;26.52;;;7.88;;
64282;SDS011;50497;50.720;-2.084;2023-02-17T00:23:59;25.20;;;6.93;;
64282;SDS011;50497;50.720;-2.084;2023-02-17T00:26:27;27.70;;;8.75;;
64282;SDS011;50497;50.720;-2.084;2023-02-17T00:28:52;22.52;;;7.28;;
64282;SDS011;50497;50.720;-2.084;2023-02-17T00:31:19;23.40;;;7.10;;
64282;SDS011;50497;50.720;-2.084;2023-02-17T00:33:53;22.05;;;7.45;;
64282;SDS011;50497;50.720;-2.084;2023-02-17T00:36:20;23.60;;;7.22;;
64282;SDS011;50497;50.720;-2.084;2023-02-17T00:38:50;23.17;;;7.32;;
64282;SDS011;50497;50.720;-2.084;2023-02-17T00:41:17;23.85;;;7.25;;
64282;SDS011;50497;50.720;-2.084;2023-02-17T00:43:43;24.33;;;7.68;;
64282;SDS011;50497;50.720;-2.084;2023-02-17T00:46:13;22.83;;;7.00;;
64282;SDS011;50497;50.720;-2.084;2023-02-17T00:48:43;26.55;;;7.88;;
64282;SDS011;50497;50.720;-2.084;2023-02-17T00:51:09;21.58;;;7.15;;
64282;SDS011;50497;50.720;-2.084;2023-02-17T00:53:39;24.60;;;7.38;;
64282;SDS011;50497;50.720;-2.084;2023-02-17T00:56:10;22.70;;;6.60;;
64282;SDS011;50497;50.720;-2.084;2023-02-17T01:01:06;21.45;;;6.78;;
64282;SDS011;50497;50.720;-2.084;2023-02-17T01:03:32;19.30;;;7.13;;
64282;SDS011;50497;50.720;-2.084;2023-02-17T01:05:58;16.13;;;5.55;;
64282;SDS011;50497;50.720;-2.084;2023-02-17T01:08:31;18.60;;;5.97;;
64282;SDS011;50497;50.720;-2.084;2023-02-17T01:10:57;18.60;;;6.95;;
64282;SDS011;50497;50.720;-2.084;2023-02-17T01:13:22;14.55;;;5.57;;
64282;SDS011;50497;50.720;-2.084;2023-02-17T01:15:58;21.10;;;7.30;;
64282;SDS011;50497;50.720;-2.084;2023-02-17T01:18:27;17.73;;;6.35;;
64282;SDS011;50497;50.720;-2.084;2023-02-17T01:20:59;18.83;;;6.45;;
64282;SDS011;50497;50.720;-2.084;2023-02-17T01:23:29;19.00;;;6.38;;
64282;SDS011;50497;50.720;-2.084;2023-02-17T01:26:00;16.50;;;5.95;;
64282;SDS011;50497;50.720;-2.084;2023-02-17T01:28:34;18.17;;;5.80;;
64282;SDS011;50497;50.720;-2.084;2023-02-17T01:31:04;16.15;;;5.90;;
64282;SDS011;50497;50.720;-2.084;2023-02-17T01:33:34;17.80;;;6.43;;
64282;SDS011;50497;50.720;-2.084;2023-02-17T01:36:05;18.55;;;6.30;;
64282;SDS011;50497;50.720;-2.084;2023-02-17T01:38:33;16.70;;;6.00;;
64282;SDS011;50497;50.720;-2.084;2023-02-17T01:41:08;15.23;;;5.53;;
64282;SDS011;50497;50.720;-2.084;2023-02-17T01:43:35;14.15;;;5.40;;
64282;SDS011;50497;50.720;-2.084;2023-02-17T01:46:07;15.88;;;5.80;;
64282;SDS011;50497;50.720;-2.084;2023-02-17T01:48:45;14.57;;;5.28;;
64282;SDS011;50497;50.720;-2.084;2023-02-17T01:51:48;14.13;;;5.10;;
64282;SDS011;50497;50.720;-2.084;2023-02-17T01:56:38;17.45;;;6.03;;
64282;SDS011;50497;50.720;-2.084;2023-02-17T01:59:26;16.63;;;5.85;;
64282;SDS011;50497;50.720;-2.084;2023-02-17T02:01:57;15.55;;;5.88;;
64282;SDS011;50497;50.720;-2.084;2023-02-17T02:04:26;15.30;;;5.20;;
64282;SDS011;50497;50.720;-2.084;2023-02-17T02:06:59;15.20;;;5.88;;
64282;SDS011;50497;50.720;-2.084;2023-02-17T02:09:31;13.95;;;5.45;;
64282;SDS011;50497;50.720;-2.084;2023-02-17T02:12:25;14.70;;;5.80;;
64282;SDS011;50497;50.720;-2.084;2023-02-17T02:14:58;14.95;;;5.43;;
64282;SDS011;50497;50.720;-2.084;2023-02-17T02:20:32;12.80;;;4.80;;
64282;SDS011;50497;50.720;-2.084;2023-02-17T02:37:41;12.82;;;4.38;;
64282;SDS011;50497;50.720;-2.084;2023-02-17T02:40:35;12.88;;;4.13;;
64282;SDS011;50497;50.720;-2.084;2023-02-17T02:43:05;15.45;;;4.65;;
64282;SDS011;50497;50.720;-2.084;2023-02-17T02:45:36;12.70;;;3.90;;
64282;SDS011;50497;50.720;-2.084;2023-02-17T02:48:01;11.93;;;4.50;;
64282;SDS011;50497;50.720;-2.084;2023-02-17T02:58:48;11.48;;;4.15;;
64282;SDS011;50497;50.720;-2.084;2023-02-17T03:01:50;12.43;;;4.60;;
64282;SDS011;50497;50.720;-2.084;2023-02-17T03:04:27;11.38;;;3.88;;
64282;SDS011;50497;50.720;-2.084;2023-02-17T03:07:02;11.25;;;3.70;;
64282;SDS011;50497;50.720;-2.084;2023-02-17T03:09:31;10.23;;;3.38;;
64282;SDS011;50497;50.720;-2.084;2023-02-17T03:14:23;13.43;;;4.07;;
64282;SDS011;50497;50.720;-2.084;2023-02-17T03:16:50;11.32;;;4.18;;
64282;SDS011;50497;50.720;-2.084;2023-02-17T03:19:21;12.00;;;4.40;;
64282;SDS011;50497;50.720;-2.084;2023-02-17T03:21:56;13.25;;;4.00;;
64282;SDS011;50497;50.720;-2.084;2023-02-17T03:24:29;13.23;;;4.55;;
64282;SDS011;50497;50.720;-2.084;2023-02-17T03:26:54;11.07;;;3.78;;
64282;SDS011;50497;50.720;-2.084;2023-02-17T03:29:23;13.13;;;3.85;;
64282;SDS011;50497;50.720;-2.084;2023-02-17T03:31:55;11.85;;;4.47;;
64282;SDS011;50497;50.720;-2.084;2023-02-17T03:34:24;11.05;;;3.95;;
64282;SDS011;50497;50.720;-2.084;2023-02-17T03:36:54;12.70;;;4.15;;
64282;SDS011;50497;50.720;-2.084;2023-02-17T03:39:19;11.85;;;4.50;;
64282;SDS011;50497;50.720;-2.084;2023-02-17T03:41:49;11.63;;;3.97;;
64282;SDS011;50497;50.720;-2.084;2023-02-17T03:44:18;12.35;;;4.10;;
64282;SDS011;50497;50.720;-2.084;2023-02-17T03:46:48;13.75;;;4.28;;
64282;SDS011;50497;50.720;-2.084;2023-02-17T03:49:14;12.05;;;3.60;;
64282;SDS011;50497;50.720;-2.084;2023-02-17T03:51:40;10.98;;;3.45;;
64282;SDS011;50497;50.720;-2.084;2023-02-17T03:54:05;14.10;;;3.85;;
64282;SDS011;50497;50.720;-2.084;2023-02-17T03:56:35;11.48;;;3.25;;
64282;SDS011;50497;50.720;-2.084;2023-02-17T03:59:01;13.25;;;4.13;;
64282;SDS011;50497;50.720;-2.084;2023-02-17T04:01:28;10.95;;;3.35;;
64282;SDS011;50497;50.720;-2.084;2023-02-17T04:03:55;10.05;;;3.60;;
64282;SDS011;50497;50.720;-2.084;2023-02-17T04:06:20;11.65;;;3.40;;
64282;SDS011;50497;50.720;-2.084;2023-02-17T04:08:51;9.98;;;3.35;;
64282;SDS011;50497;50.720;-2.084;2023-02-17T04:11:20;9.35;;;3.13;;
64282;SDS011;50497;50.720;-2.084;2023-02-17T04:13:52;11.27;;;3.63;;
64282;SDS011;50497;50.720;-2.084;2023-02-17T04:16:20;15.48;;;4.05;;
64282;SDS011;50497;50.720;-2.084;2023-02-17T04:18:46;10.00;;;3.00;;
64282;SDS011;50497;50.720;-2.084;2023-02-17T04:21:15;12.05;;;3.35;;
64282;SDS011;50497;50.720;-2.084;2023-02-17T04:23:41;9.93;;;3.58;;
64282;SDS011;50497;50.720;-2.084;2023-02-17T04:26:14;11.18;;;3.63;;
64282;SDS011;50497;50.720;-2.084;2023-02-17T04:28:40;11.10;;;3.60;;
64282;SDS011;50497;50.720;-2.084;2023-02-17T04:31:08;10.05;;;3.10;;
64282;SDS011;50497;50.720;-2.084;2023-02-17T04:33:37;10.23;;;3.03;;
64282;SDS011;50497;50.720;-2.084;2023-02-17T04:36:07;10.65;;;3.42;;
64282;SDS011;50497;50.720;-2.084;2023-02-17T04:38:36;9.95;;;3.70;;
64282;SDS011;50497;50.720;-2.084;2023-02-17T04:41:08;10.07;;;3.30;;
64282;SDS011;50497;50.720;-2.084;2023-02-17T04:43:36;10.07;;;3.20;;
64282;SDS011;50497;50.720;-2.084;2023-02-17T04:46:06;9.60;;;3.08;;
64282;SDS011;50497;50.720;-2.084;2023-02-17T04:48:32;10.07;;;3.20;;
64282;SDS011;50497;50.720;-2.084;2023-02-17T04:51:01;9.18;;;3.42;;
64282;SDS011;50497;50.720;-2.084;2023-02-17T04:53:27;10.18;;;3.30;;
64282;SDS011;50497;50.720;-2.084;2023-02-17T04:56:02;7.45;;;2.80;;
64282;SDS011;50497;50.720;-2.084;2023-02-17T04:58:31;12.75;;;3.15;;
64282;SDS011;50497;50.720;-2.084;2023-02-17T05:01:00;8.52;;;2.80;;
64282;SDS011;50497;50.720;-2.084;2023-02-17T05:03:29;9.00;;;2.80;;
64282;SDS011;50497;50.720;-2.084;2023-02-17T05:06:00;8.95;;;3.15;;
64282;SDS011;50497;50.720;-2.084;2023-02-17T05:08:25;11.25;;;3.20;;
64282;SDS011;50497;50.720;-2.084;2023-02-17T05:10:51;9.02;;;2.58;;
64282;SDS011;50497;50.720;-2.084;2023-02-17T05:13:20;7.82;;;2.55;;
64282;SDS011;50497;50.720;-2.084;2023-02-17T05:15:51;11.50;;;3.10;;
64282;SDS011;50497;50.720;-2.084;2023-02-17T05:18:17;10.98;;;3.00;;
64282;SDS011;50497;50.720;-2.084;2023-02-17T05:20:43;8.25;;;2.92;;
64282;SDS011;50497;50.720;-2.084;2023-02-17T05:23:08;8.43;;;2.60;;
64282;SDS011;50497;50.720;-2.084;2023-02-17T05:25:38;7.18;;;2.65;;
64282;SDS011;50497;50.720;-2.084;2023-02-17T05:28:10;10.10;;;2.78;;
64282;SDS011;50497;50.720;-2.084;2023-02-17T05:30:36;9.73;;;2.80;;
64282;SDS011;50497;50.720;-2.084;2023-02-17T05:33:05;9.73;;;2.78;;
64282;SDS011;50497;50.720;-2.084;2023-02-17T05:35:32;8.00;;;2.60;;
64282;SDS011;50497;50.720;-2.084;2023-02-17T05:37:59;7.90;;;2.47;;
64282;SDS011;50497;50.720;-2.084;2023-02-17T05:40:26;9.88;;;2.88;;
64282;SDS011;50497;50.720;-2.084;2023-02-17T05:42:55;7.13;;;2.40;;
64282;SDS011;50497;50.720;-2.084;2023-02-17T05:45:24;9.27;;;2.78;;
64282;SDS011;50497;50.720;-2.084;2023-02-17T05:47:49;8.25;;;2.50;;
64282;SDS011;50497;50.720;-2.084;2023-02-17T05:50:19;9.43;;;2.30;;
64282;SDS011;50497;50.720;-2.084;2023-02-17T05:52:51;7.20;;;2.08;;
64282;SDS011;50497;50.720;-2.084;2023-02-17T05:55:16;9.80;;;2.65;;
64282;SDS011;50497;50.720;-2.084;2023-02-17T05:57:46;7.93;;;2.05;;
64282;SDS011;50497;50.720;-2.084;2023-02-17T06:00:14;10.07;;;2.65;;
64282;SDS011;50497;50.720;-2.084;2023-02-17T06:02:44;8.57;;;2.17;;
64282;SDS011;50497;50.720;-2.084;2023-02-17T06:05:11;8.00;;;2.40;;
64282;SDS011;50497;50.720;-2.084;2023-02-17T06:07:37;8.80;;;2.10;;
64282;SDS011;50497;50.720;-2.084;2023-02-17T06:10:03;7.22;;;2.53;;
64282;SDS011;50497;50.720;-2.084;2023-02-17T06:12:33;10.45;;;2.40;;
64282;SDS011;50497;50.720;-2.084;2023-02-17T06:15:03;7.85;;;1.90;;
64282;SDS011;50497;50.720;-2.084;2023-02-17T06:17:29;7.30;;;1.90;;
64282;SDS011;50497;50.720;-2.084;2023-02-17T06:20:02;6.47;;;1.70;;
64282;SDS011;50497;50.720;-2.084;2023-02-17T06:22:28;6.25;;;1.88;;
64282;SDS011;50497;50.720;-2.084;2023-02-17T06:24:54;4.65;;;1.58;;
64282;SDS011;50497;50.720;-2.084;2023-02-17T06:27:23;7.32;;;2.08;;
64282;SDS011;50497;50.720;-2.084;2023-02-17T06:29:53;7.80;;;1.98;;
64282;SDS011;50497;50.720;-2.084;2023-02-17T06:32:24;7.70;;;1.65;;
64282;SDS011;50497;50.720;-2.084;2023-02-17T06:34:50;9.25;;;1.90;;
64282;SDS011;50497;50.720;-2.084;2023-02-17T06:37:19;6.82;;;1.77;;
64282;SDS011;50497;50.720;-2.084;2023-02-17T06:39:49;5.18;;;1.52;;
64282;SDS011;50497;50.720;-2.084;2023-02-17T06:42:18;4.13;;;1.35;;
64282;SDS011;50497;50.720;-2.084;2023-02-17T06:44:47;7.78;;;1.70;;
64282;SDS011;50497;50.720;-2.084;2023-02-17T06:47:12;5.35;;;1.60;;
64282;SDS011;50497;50.720;-2.084;2023-02-17T06:52:12;6.93;;;1.98;;
64282;SDS011;50497;50.720;-2.084;2023-02-17T06:54:38;4.72;;;1.23;;
64282;SDS011;50497;50.720;-2.084;2023-02-17T06:57:03;6.43;;;1.42;;
64282;SDS011;50497;50.720;-2.084;2023-02-17T06:59:32;6.43;;;1.40;;
64282;SDS011;50497;50.720;-2.084;2023-02-17T07:01:57;7.85;;;1.40;;
64282;SDS011;50497;50.720;-2.084;2023-02-17T07:04:23;5.00;;;1.33;;
64282;SDS011;50497;50.720;-2.084;2023-02-17T07:06:49;5.93;;;1.50;;
64282;SDS011;50497;50.720;-2.084;2023-02-17T07:09:14;4.50;;;1.50;;
64282;SDS011;50497;50.720;-2.084;2023-02-17T07:11:40;8.85;;;2.22;;
64282;SDS011;50497;50.720;-2.084;2023-02-17T07:14:18;7.45;;;1.52;;
64282;SDS011;50497;50.720;-2.084;2023-02-17T07:16:51;8.25;;;1.90;;
64282;SDS011;50497;50.720;-2.084;2023-02-17T07:19:17;8.38;;;1.73;;
64282;SDS011;50497;50.720;-2.084;2023-02-17T07:21:48;9.35;;;1.83;;
64282;SDS011;50497;50.720;-2.084;2023-02-17T07:24:15;6.80;;;1.90;;
64282;SDS011;50497;50.720;-2.084;2023-02-17T07:26:45;10.20;;;2.08;;
64282;SDS011;50497;50.720;-2.084;2023-02-17T07:29:25;7.55;;;1.95;;
64282;SDS011;50497;50.720;-2.084;2023-02-17T07:31:56;6.70;;;1.70;;
64282;SDS011;50497;50.720;-2.084;2023-02-17T07:34:22;7.10;;;2.00;;
64282;SDS011;50497;50.720;-2.084;2023-02-17T07:36:51;10.73;;;2.25;;
64282;SDS011;50497;50.720;-2.084;2023-02-17T07:39:21;8.10;;;2.05;;
64282;SDS011;50497;50.720;-2.084;2023-02-17T07:41:46;6.45;;;1.65;;
64282;SDS011;50497;50.720;-2.084;2023-02-17T07:44:12;7.57;;;1.70;;
64282;SDS011;50497;50.720;-2.084;2023-02-17T07:46:45;7.63;;;1.80;;
64282;SDS011;50497;50.720;-2.084;2023-02-17T07:49:11;5.75;;;1.33;;
64282;SDS011;50497;50.720;-2.084;2023-02-17T07:51:40;9.02;;;1.50;;
64282;SDS011;50497;50.720;-2.084;2023-02-17T07:54:08;6.15;;;1.60;;
64282;SDS011;50497;50.720;-2.084;2023-02-17T07:56:38;6.28;;;1.60;;
64282;SDS011;50497;50.720;-2.084;2023-02-17T07:59:07;9.10;;;1.80;;
64282;SDS011;50497;50.720;-2.084;2023-02-17T08:01:33;6.82;;;1.70;;
64282;SDS011;50497;50.720;-2.084;2023-02-17T08:03:59;9.30;;;1.73;;
64282;SDS011;50497;50.720;-2.084;2023-02-17T08:06:25;7.68;;;1.90;;
64282;SDS011;50497;50.720;-2.084;2023-02-17T08:08:53;10.73;;;2.10;;
64282;SDS011;50497;50.720;-2.084;2023-02-17T08:11:38;7.22;;;1.75;;
64282;SDS011;50497;50.720;-2.084;2023-02-17T08:14:24;9.98;;;1.92;;
64282;SDS011;50497;50.720;-2.084;2023-02-17T08:16:52;7.63;;;1.65;;
64282;SDS011;50497;50.720;-2.084;2023-02-17T08:19:21;7.45;;;1.50;;
64282;SDS011;50497;50.720;-2.084;2023-02-17T08:21:51;6.95;;;1.50;;
64282;SDS011;50497;50.720;-2.084;2023-02-17T08:24:17;7.05;;;1.33;;
64282;SDS011;50497;50.720;-2.084;2023-02-17T08:26:47;6.20;;;1.60;;
64282;SDS011;50497;50.720;-2.084;2023-02-17T08:29:13;7.40;;;1.65;;
64282;SDS011;50497;50.720;-2.084;2023-02-17T08:31:39;7.82;;;1.58;;
64282;SDS011;50497;50.720;-2.084;2023-02-17T08:34:05;7.68;;;1.63;;
64282;SDS011;50497;50.720;-2.084;2023-02-17T08:36:33;7.18;;;1.70;;
64282;SDS011;50497;50.720;-2.084;2023-02-17T08:39:03;7.35;;;1.65;;
64282;SDS011;50497;50.720;-2.084;2023-02-17T08:41:34;6.70;;;1.65;;
64282;SDS011;50497;50.720;-2.084;2023-02-17T08:44:05;3.90;;;1.20;;
64282;SDS011;50497;50.720;-2.084;2023-02-17T08:46:36;4.38;;;1.40;;
64282;SDS011;50497;50.720;-2.084;2023-02-17T08:49:03;5.85;;;1.55;;
64282;SDS011;50497;50.720;-2.084;2023-02-17T08:51:29;5.38;;;1.17;;
64282;SDS011;50497;50.720;-2.084;2023-02-17T08:53:56;8.68;;;1.73;;
64282;SDS011;50497;50.720;-2.084;2023-02-17T08:56:23;6.90;;;1.50;;
64282;SDS011;50497;50.720;-2.084;2023-02-17T08:58:50;7.13;;;1.95;;
64282;SDS011;50497;50.720;-2.084;2023-02-17T09:01:17;7.97;;;1.52;;
64282;SDS011;50497;50.720;-2.084;2023-02-17T09:03:49;4.45;;;1.13;;
64282;SDS011;50497;50.720;-2.084;2023-02-17T09:06:30;6.07;;;1.30;;
64282;SDS011;50497;50.720;-2.084;2023-02-17T09:09:02;7.75;;;1.50;;
64282;SDS011;50497;50.720;-2.084;2023-02-17T09:11:33;4.38;;;1.25;;
64282;SDS011;50497;50.720;-2.084;2023-02-17T09:14:01;4.22;;;1.13;;
64282;SDS011;50497;50.720;-2.084;2023-02-17T09:16:27;6.13;;;1.20;;
64282;SDS011;50497;50.720;-2.084;2023-02-17T09:18:52;6.22;;;1.27;;
64282;SDS011;50497;50.720;-2.084;2023-02-17T09:21:18;5.00;;;1.20;;
64282;SDS011;50497;50.720;-2.084;2023-02-17T09:23:48;5.22;;;1.48;;
64282;SDS011;50497;50.720;-2.084;2023-02-17T09:26:14;5.22;;;1.17;;
64282;SDS011;50497;50.720;-2.084;2023-02-17T09:28:44;6.55;;;1.75;;
64282;SDS011;50497;50.720;-2.084;2023-02-17T09:31:16;4.90;;;1.20;;
64282;SDS011;50497;50.720;-2.084;2023-02-17T09:33:44;5.85;;;1.50;;
64282;SDS011;50497;50.720;-2.084;2023-02-17T09:36:12;6.47;;;1.20;;
64282;SDS011;50497;50.720;-2.084;2023-02-17T09:38:43;3.42;;;1.20;;
64282;SDS011;50497;50.720;-2.084;2023-02-17T09:43:56;4.15;;;1.20;;
64282;SDS011;50497;50.720;-2.084;2023-02-17T09:48:54;9.27;;;1.52;;
64282;SDS011;50497;50.720;-2.084;2023-02-17T09:51:32;4.80;;;1.23;;
64282;SDS011;50497;50.720;-2.084;2023-02-17T09:56:53;4.20;;;1.25;;
64282;SDS011;50497;50.720;-2.084;2023-02-17T10:01:57;5.30;;;1.55;;
64282;SDS011;50497;50.720;-2.084;2023-02-17T10:04:31;4.22;;;1.20;;
64282;SDS011;50497;50.720;-2.084;2023-02-17T10:09:46;6.65;;;1.13;;
64282;SDS011;50497;50.720;-2.084;2023-02-17T10:12:29;9.45;;;1.63;;
64282;SDS011;50497;50.720;-2.084;2023-02-17T10:15:08;4.80;;;1.10;;
64282;SDS011;50497;50.720;-2.084;2023-02-17T10:17:59;5.45;;;1.20;;
64282;SDS011;50497;50.720;-2.084;2023-02-17T10:21:01;7.75;;;1.30;;
64282;SDS011;50497;50.720;-2.084;2023-02-17T10:23:31;6.70;;;1.60;;
64282;SDS011;50497;50.720;-2.084;2023-02-17T10:37:03;4.53;;;1.05;;
64282;SDS011;50497;50.720;-2.084;2023-02-17T10:39:47;6.10;;;1.20;;
64282;SDS011;50497;50.720;-2.084;2023-02-17T10:44:50;6.57;;;1.30;;
64282;SDS011;50497;50.720;-2.084;2023-02-17T10:47:22;3.10;;;1.05;;
64282;SDS011;50497;50.720;-2.084;2023-02-17T10:49:50;3.17;;;0.90;;
64282;SDS011;50497;50.720;-2.084;2023-02-17T10:52:19;5.00;;;1.10;;
64282;SDS011;50497;50.720;-2.084;2023-02-17T10:54:59;4.35;;;1.15;;
64282;SDS011;50497;50.720;-2.084;2023-02-17T10:57:41;3.42;;;0.90;;
64282;SDS011;50497;50.720;-2.084;2023-02-17T11:02:49;6.15;;;1.35;;
64282;SDS011;50497;50.720;-2.084;2023-02-17T11:05:22;6.05;;;1.55;;
64282;SDS011;50497;50.720;-2.084;2023-02-17T11:08:01;2.88;;;1.10;;
64282;SDS011;50497;50.720;-2.084;2023-02-17T11:10:30;4.43;;;1.20;;
64282;SDS011;50497;50.720;-2.084;2023-02-17T11:12:58;3.78;;;1.10;;
64282;SDS011;50497;50.720;-2.084;2023-02-17T11:15:29;3.95;;;1.23;;
64282;SDS011;50497;50.720;-2.084;2023-02-17T11:18:08;4.38;;;1.15;;
64282;SDS011;50497;50.720;-2.084;2023-02-17T11:20:46;5.75;;;1.08;;
64282;SDS011;50497;50.720;-2.084;2023-02-17T11:23:23;3.70;;;1.10;;
64282;SDS011;50497;50.720;-2.084;2023-02-17T11:25:57;6.55;;;1.77;;
64282;SDS011;50497;50.720;-2.084;2023-02-17T11:28:31;4.00;;;1.20;;
64282;SDS011;50497;50.720;-2.084;2023-02-17T11:31:01;5.10;;;1.50;;
64282;SDS011;50497;50.720;-2.084;2023-02-17T11:33:30;4.53;;;1.20;;
64282;SDS011;50497;50.720;-2.084;2023-02-17T11:36:19;5.18;;;1.35;;
64282;SDS011;50497;50.720;-2.084;2023-02-17T11:38:55;3.28;;;1.20;;
64282;SDS011;50497;50.720;-2.084;2023-02-17T11:41:21;4.72;;;1.40;;
64282;SDS011;50497;50.720;-2.084;2023-02-17T11:46:29;7.78;;;1.60;;
64282;SDS011;50497;50.720;-2.084;2023-02-17T11:49:06;8.93;;;1.42;;
64282;SDS011;50497;50.720;-2.084;2023-02-17T11:54:34;7.10;;;1.58;;
64282;SDS011;50497;50.720;-2.084;2023-02-17T12:18:17;6.63;;;1.50;;
64282;SDS011;50497;50.720;-2.084;2023-02-17T12:20:58;9.75;;;1.75;;
64282;SDS011;50497;50.720;-2.084;2023-02-17T12:29:55;9.13;;;1.60;;
64282;SDS011;50497;50.720;-2.084;2023-02-17T12:41:06;6.95;;;2.10;;
64282;SDS011;50497;50.720;-2.084;2023-02-17T12:43:50;5.38;;;1.60;;
64282;SDS011;50497;50.720;-2.084;2023-02-17T12:46:22;5.40;;;1.63;;
64282;SDS011;50497;50.720;-2.084;2023-02-17T12:49:08;5.70;;;1.17;;
64282;SDS011;50497;50.720;-2.084;2023-02-17T12:54:17;6.38;;;1.52;;
64282;SDS011;50497;50.720;-2.084;2023-02-17T12:57:16;5.78;;;1.50;;
64282;SDS011;50497;50.720;-2.084;2023-02-17T12:59:46;4.82;;;1.30;;
64282;SDS011;50497;50.720;-2.084;2023-02-17T13:02:15;6.35;;;1.58;;
64282;SDS011;50497;50.720;-2.084;2023-02-17T13:04:54;4.70;;;1.38;;
64282;SDS011;50497;50.720;-2.084;2023-02-17T13:07:43;6.85;;;1.50;;
64282;SDS011;50497;50.720;-2.084;2023-02-17T13:10:27;7.00;;;1.70;;
64282;SDS011;50497;50.720;-2.084;2023-02-17T13:12:59;5.13;;;1.40;;
64282;SDS011;50497;50.720;-2.084;2023-02-17T13:15:33;9.25;;;1.85;;
64282;SDS011;50497;50.720;-2.084;2023-02-17T13:18:24;7.70;;;1.50;;
64282;SDS011;50497;50.720;-2.084;2023-02-17T13:20:54;5.97;;;1.65;;
64282;SDS011;50497;50.720;-2.084;2023-02-17T13:23:36;8.68;;;1.50;;
64282;SDS011;50497;50.720;-2.084;2023-02-17T13:31:58;7.00;;;1.70;;
64282;SDS011;50497;50.720;-2.084;2023-02-17T13:34:43;7.22;;;1.92;;
64282;SDS011;50497;50.720;-2.084;2023-02-17T13:37:18;6.72;;;1.60;;
64282;SDS011;50497;50.720;-2.084;2023-02-17T13:39:58;6.72;;;1.60;;
64282;SDS011;50497;50.720;-2.084;2023-02-17T13:43:08;8.65;;;1.80;;
64282;SDS011;50497;50.720;-2.084;2023-02-17T13:45:52;13.00;;;4.32;;
64282;SDS011;50497;50.720;-2.084;2023-02-17T13:48:34;10.18;;;2.33;;
64282;SDS011;50497;50.720;-2.084;2023-02-17T13:51:01;10.40;;;1.80;;
64282;SDS011;50497;50.720;-2.084;2023-02-17T13:59:04;8.32;;;2.38;;
64282;SDS011;50497;50.720;-2.084;2023-02-17T14:01:49;5.40;;;2.13;;
64282;SDS011;50497;50.720;-2.084;2023-02-17T14:04:18;8.65;;;1.98;;
64282;SDS011;50497;50.720;-2.084;2023-02-17T14:07:02;7.55;;;2.60;;
64282;SDS011;50497;50.720;-2.084;2023-02-17T14:09:35;9.90;;;2.28;;
64282;SDS011;50497;50.720;-2.084;2023-02-17T14:12:16;9.27;;;2.40;;
64282;SDS011;50497;50.720;-2.084;2023-02-17T14:14:47;8.57;;;2.20;;
64282;SDS011;50497;50.720;-2.084;2023-02-17T14:17:31;8.27;;;1.90;;
64282;SDS011;50497;50.720;-2.084;2023-02-17T14:20:29;8.68;;;2.78;;
64282;SDS011;50497;50.720;-2.084;2023-02-17T14:23:09;8.72;;;1.90;;
64282;SDS011;50497;50.720;-2.084;2023-02-17T14:28:35;8.55;;;2.10;;
64282;SDS011;50497;50.720;-2.084;2023-02-17T14:31:08;9.10;;;3.30;;
64282;SDS011;50497;50.720;-2.084;2023-02-17T14:33:59;10.57;;;3.13;;
64282;SDS011;50497;50.720;-2.084;2023-02-17T14:36:28;19.65;;;7.95;;
64282;SDS011;50497;50.720;-2.084;2023-02-17T14:38:59;15.27;;;6.50;;
64282;SDS011;50497;50.720;-2.084;2023-02-17T14:41:38;10.25;;;3.60;;
64282;SDS011;50497;50.720;-2.084;2023-02-17T14:44:11;19.20;;;8.40;;
64282;SDS011;50497;50.720;-2.084;2023-02-17T14:49:12;11.10;;;4.20;;
64282;SDS011;50497;50.720;-2.084;2023-02-17T14:51:45;9.50;;;3.65;;
64282;SDS011;50497;50.720;-2.084;2023-02-17T14:54:24;8.07;;;3.00;;
64282;SDS011;50497;50.720;-2.084;2023-02-17T14:57:04;10.63;;;3.03;;
64282;SDS011;50497;50.720;-2.084;2023-02-17T14:59:39;8.73;;;2.20;;
64282;SDS011;50497;50.720;-2.084;2023-02-17T15:02:12;5.35;;;1.90;;
64282;SDS011;50497;50.720;-2.084;2023-02-17T15:04:47;8.18;;;2.38;;
64282;SDS011;50497;50.720;-2.084;2023-02-17T15:07:13;7.10;;;2.40;;
64282;SDS011;50497;50.720;-2.084;2023-02-17T15:09:50;7.90;;;2.08;;
64282;SDS011;50497;50.720;-2.084;2023-02-17T15:12:17;11.07;;;2.25;;
64282;SDS011;50497;50.720;-2.084;2023-02-17T15:14:47;7.97;;;1.98;;
64282;SDS011;50497;50.720;-2.084;2023-02-17T15:17:16;7.32;;;2.10;;
64282;SDS011;50497;50.720;-2.084;2023-02-17T15:19:47;7.70;;;1.83;;
64282;SDS011;50497;50.720;-2.084;2023-02-17T15:22:22;6.97;;;1.90;;
64282;SDS011;50497;50.720;-2.084;2023-02-17T15:24:58;8.05;;;2.30;;
64282;SDS011;50497;50.720;-2.084;2023-02-17T15:27:23;6.10;;;1.70;;
64282;SDS011;50497;50.720;-2.084;2023-02-17T15:29:57;6.75;;;1.70;;
64282;SDS011;50497;50.720;-2.084;2023-02-17T15:32:25;6.78;;;1.80;;
64282;SDS011;50497;50.720;-2.084;2023-02-17T15:34:59;7.68;;;2.50;;
64282;SDS011;50497;50.720;-2.084;2023-02-17T15:37:25;9.85;;;2.60;;
64282;SDS011;50497;50.720;-2.084;2023-02-17T15:39:59;9.15;;;2.38;;
64282;SDS011;50497;50.720;-2.084;2023-02-17T15:42:31;8.65;;;2.30;;
64282;SDS011;50497;50.720;-2.084;2023-02-17T15:45:01;13.25;;;2.90;;
64282;SDS011;50497;50.720;-2.084;2023-02-17T15:47:35;9.88;;;2.00;;
64282;SDS011;50497;50.720;-2.084;2023-02-17T15:50:03;8.40;;;2.25;;
64282;SDS011;50497;50.720;-2.084;2023-02-17T15:52:36;9.27;;;2.65;;
64282;SDS011;50497;50.720;-2.084;2023-02-17T15:55:07;8.07;;;2.10;;
64282;SDS011;50497;50.720;-2.084;2023-02-17T15:57:49;6.95;;;2.03;;
64282;SDS011;50497;50.720;-2.084;2023-02-17T16:00:40;7.30;;;2.30;;
64282;SDS011;50497;50.720;-2.084;2023-02-17T16:03:17;7.88;;;2.30;;
64282;SDS011;50497;50.720;-2.084;2023-02-17T16:05:53;8.82;;;2.33;;
64282;SDS011;50497;50.720;-2.084;2023-02-17T16:08:25;12.75;;;2.83;;
64282;SDS011;50497;50.720;-2.084;2023-02-17T16:11:01;10.50;;;3.00;;
64282;SDS011;50497;50.720;-2.084;2023-02-17T16:13:39;8.73;;;2.40;;
64282;SDS011;50497;50.720;-2.084;2023-02-17T16:16:20;12.27;;;3.33;;
64282;SDS011;50497;50.720;-2.084;2023-02-17T16:18:52;7.25;;;2.70;;
64282;SDS011;50497;50.720;-2.084;2023-02-17T16:21:28;12.32;;;3.53;;
64282;SDS011;50497;50.720;-2.084;2023-02-17T16:24:00;10.63;;;2.80;;
64282;SDS011;50497;50.720;-2.084;2023-02-17T16:26:27;11.32;;;2.65;;
64282;SDS011;50497;50.720;-2.084;2023-02-17T16:29:02;9.75;;;2.60;;
64282;SDS011;50497;50.720;-2.084;2023-02-17T16:31:46;10.57;;;3.05;;
64282;SDS011;50497;50.720;-2.084;2023-02-17T16:34:20;12.93;;;2.55;;
64282;SDS011;50497;50.720;-2.084;2023-02-17T16:37:02;10.95;;;2.90;;
64282;SDS011;50497;50.720;-2.084;2023-02-17T16:39:44;9.82;;;2.60;;
64282;SDS011;50497;50.720;-2.084;2023-02-17T16:42:17;12.23;;;2.70;;
64282;SDS011;50497;50.720;-2.084;2023-02-17T16:44:53;10.75;;;2.80;;
64282;SDS011;50497;50.720;-2.084;2023-02-17T16:47:26;11.80;;;2.97;;
64282;SDS011;50497;50.720;-2.084;2023-02-17T16:49:54;7.40;;;2.50;;
64282;SDS011;50497;50.720;-2.084;2023-02-17T16:52:33;10.63;;;2.67;;
64282;SDS011;50497;50.720;-2.084;2023-02-17T16:55:09;9.55;;;2.70;;
64282;SDS011;50497;50.720;-2.084;2023-02-17T16:57:46;10.80;;;3.20;;
64282;SDS011;50497;50.720;-2.084;2023-02-17T17:00:26;12.82;;;3.20;;
64282;SDS011;50497;50.720;-2.084;2023-02-17T17:03:03;11.95;;;2.92;;